Time;durP1;ratioP1;P1;durP2;ratioP2;P2;SDS_P1;SDS_P2;PMS_P1;PMS_P2;Temp;Humidity;BMP_temperature;BMP_pressure;BME280_temperature;BME280_humidity;BME280_pressure;Samples;Min_cycle;Max_cycle;Signal;HPM_P1;HPM_P2
2021/07/06 00:01:39;;;;;;;12.50;11.23;;;17.60;99.90;;;;;;6037936;23;20007;-88
2021/07/06 00:04:04;;;;;;;11.57;10.38;;;17.50;99.90;;;;;;6012864;23;20003;-87
2021/07/06 00:06:30;;;;;;;13.98;12.18;;;17.50;99.90;;;;;;6012313;23;20014;-87
2021/07/06 00:08:55;;;;;;;15.48;13.13;;;17.40;99.90;;;;;;6038284;23;20336;-88
2021/07/06 00:11:21;;;;;;;19.83;13.00;;;17.40;99.90;;;;;;6013068;23;20057;-88
2021/07/06 00:13:47;;;;;;;14.43;13.00;;;17.30;99.90;;;;;;6037485;23;20040;-88
2021/07/06 00:16:13;;;;;;;13.13;11.75;;;17.30;99.90;;;;;;6037649;23;20007;-88
2021/07/06 00:18:40;;;;;;;12.57;11.38;;;17.30;99.90;;;;;;6038099;23;20011;-87
2021/07/06 00:21:06;;;;;;;12.85;11.65;;;17.20;99.90;;;;;;6037772;23;20011;-88
2021/07/06 00:23:32;;;;;;;13.13;10.77;;;17.20;99.90;;;;;;6037870;23;20086;-87
2021/07/06 00:25:57;;;;;;;14.63;11.80;;;17.30;99.90;;;;;;6037468;23;20066;-88
2021/07/06 00:28:23;;;;;;;14.52;12.88;;;17.20;99.90;;;;;;6036363;23;20007;-87
2021/07/06 00:30:50;;;;;;;13.40;11.57;;;17.30;99.90;;;;;;6037705;23;20071;-87
2021/07/06 00:33:16;;;;;;;16.67;11.38;;;17.30;99.90;;;;;;6037579;23;20326;-87
2021/07/06 00:35:42;;;;;;;13.70;11.98;;;17.30;99.90;;;;;;6037828;23;20003;-87
2021/07/06 00:38:09;;;;;;;11.38;10.38;;;17.30;99.90;;;;;;6037603;23;20067;-87
2021/07/06 00:40:35;;;;;;;13.10;11.80;;;17.20;99.90;;;;;;6037698;23;20046;-88
2021/07/06 00:43:01;;;;;;;16.65;12.35;;;17.20;99.90;;;;;;6037853;23;20011;-87
2021/07/06 00:45:28;;;;;;;12.52;11.32;;;17.20;99.90;;;;;;6036964;23;20003;-88
2021/07/06 00:47:54;;;;;;;13.45;12.15;;;17.20;99.90;;;;;;6037516;23;20328;-88
2021/07/06 00:50:24;;;;;;;15.13;12.77;;;17.20;99.90;;;;;;6037910;23;20004;-87
2021/07/06 00:52:50;;;;;;;12.65;11.35;;;17.20;99.90;;;;;;6037828;23;20062;-87
2021/07/06 00:55:17;;;;;;;13.70;12.18;;;17.20;99.90;;;;;;6037404;23;20079;-87
2021/07/06 00:57:43;;;;;;;14.35;12.93;;;17.20;99.90;;;;;;6037219;23;20055;-88
2021/07/06 01:00:10;;;;;;;15.85;12.35;;;17.20;99.90;;;;;;6037077;23;20500;-88
2021/07/06 01:02:36;;;;;;;18.95;13.18;;;17.20;99.90;;;;;;6037504;23;20062;-87
2021/07/06 01:05:05;;;;;;;14.35;13.07;;;17.20;99.90;;;;;;6036776;23;20424;-87
2021/07/06 01:07:31;;;;;;;16.42;13.80;;;17.20;99.90;;;;;;6037218;23;20047;-87
2021/07/06 01:09:56;;;;;;;14.88;13.30;;;17.10;99.90;;;;;;6011944;23;20000;-87
2021/07/06 01:12:22;;;;;;;13.98;12.55;;;17.00;99.90;;;;;;6038879;23;20003;-87
2021/07/06 01:14:48;;;;;;;13.63;12.23;;;17.10;99.90;;;;;;6039770;23;20496;-88
2021/07/06 01:17:13;;;;;;;13.98;12.40;;;17.10;99.90;;;;;;6040005;23;20026;-87
2021/07/06 01:19:42;;;;;;;16.17;13.98;;;17.10;99.90;;;;;;6039627;23;20016;-88
2021/07/06 01:22:08;;;;;;;24.17;12.07;;;17.10;99.90;;;;;;6038803;23;20004;-86
2021/07/06 01:24:38;;;;;;;14.15;12.70;;;17.00;99.90;;;;;;6038974;23;20485;-86
2021/07/06 01:27:04;;;;;;;13.40;12.00;;;17.00;99.90;;;;;;6039339;23;20055;-87
2021/07/06 01:29:30;;;;;;;17.38;13.57;;;17.00;99.90;;;;;;6014087;23;20083;-87
2021/07/06 01:31:56;;;;;;;14.25;12.95;;;16.90;99.90;;;;;;6039054;23;20031;-86
2021/07/06 01:34:21;;;;;;;14.00;12.57;;;16.80;99.90;;;;;;6039310;23;20083;-87
2021/07/06 01:36:47;;;;;;;14.65;12.50;;;16.80;99.90;;;;;;6039281;23;20010;-88
2021/07/06 01:39:15;;;;;;;14.25;12.88;;;16.80;99.90;;;;;;6009538;23;20023;-86
2021/07/06 01:41:42;;;;;;;15.30;13.60;;;16.80;99.90;;;;;;6011315;23;20011;-86
2021/07/06 01:44:38;;;;;;;15.07;13.52;;;16.80;99.90;;;;;;6010869;23;20000;-86
2021/07/06 01:47:03;;;;;;;14.32;13.07;;;16.60;99.90;;;;;;5992246;23;20015;-86
2021/07/06 01:49:29;;;;;;;14.90;13.35;;;16.60;99.90;;;;;;6011492;23;20015;-87
2021/07/06 01:51:55;;;;;;;14.20;12.65;;;16.60;99.90;;;;;;6009253;23;20015;-87
2021/07/06 01:54:20;;;;;;;14.45;11.88;;;16.60;99.90;;;;;;6010842;23;20007;-87
2021/07/06 01:56:48;;;;;;;13.68;12.25;;;16.60;99.90;;;;;;6009163;23;20079;-87
2021/07/06 01:59:14;;;;;;;16.35;13.65;;;16.60;99.90;;;;;;6011359;23;20008;-86
2021/07/06 02:01:43;;;;;;;14.02;12.68;;;16.70;99.90;;;;;;6011185;23;20015;-87
2021/07/06 02:04:09;;;;;;;16.95;12.25;;;16.70;99.90;;;;;;6010730;23;20007;-86
2021/07/06 02:06:34;;;;;;;14.48;13.00;;;16.60;99.90;;;;;;6010434;23;20018;-87
2021/07/06 02:09:01;;;;;;;13.73;12.52;;;16.60;99.90;;;;;;6009453;23;20018;-87
2021/07/06 02:11:27;;;;;;;13.70;12.40;;;16.60;99.90;;;;;;6010446;23;20440;-86
2021/07/06 02:13:54;;;;;;;14.52;12.82;;;16.50;99.90;;;;;;6011191;23;20004;-87
2021/07/06 02:16:20;;;;;;;16.50;12.70;;;16.50;99.90;;;;;;6010682;23;20471;-87
2021/07/06 02:18:46;;;;;;;14.35;12.73;;;16.50;99.90;;;;;;6010912;23;20004;-86
2021/07/06 02:21:12;;;;;;;15.73;14.15;;;16.50;99.90;;;;;;6010699;23;20007;-86
2021/07/06 02:23:38;;;;;;;16.08;14.13;;;16.40;99.90;;;;;;6010635;23;20011;-86
2021/07/06 02:26:05;;;;;;;15.13;13.60;;;16.40;99.90;;;;;;6010338;23;20014;-86
2021/07/06 02:28:32;;;;;;;14.82;13.43;;;16.30;99.90;;;;;;6011233;23;20014;-86
2021/07/06 02:30:58;;;;;;;17.95;14.57;;;16.30;99.90;;;;;;6010827;23;20015;-87
2021/07/06 02:33:24;;;;;;;15.45;13.90;;;16.20;99.90;;;;;;6010647;23;20000;-86
2021/07/06 02:35:50;;;;;;;16.50;13.88;;;16.20;99.90;;;;;;6010442;23;20014;-86
2021/07/06 02:38:16;;;;;;;15.80;14.23;;;16.20;99.90;;;;;;6024094;23;20045;-87
2021/07/06 02:40:46;;;;;;;15.63;14.02;;;16.20;99.90;;;;;;6039168;23;20031;-86
2021/07/06 02:43:11;;;;;;;14.80;12.07;;;16.20;99.90;;;;;;6039324;23;20328;-87
2021/07/06 02:45:37;;;;;;;14.00;12.70;;;16.20;99.90;;;;;;6038948;23;20004;-86
2021/07/06 02:48:03;;;;;;;21.23;13.52;;;16.20;99.90;;;;;;6038842;23;20003;-86
2021/07/06 02:50:29;;;;;;;15.50;12.40;;;16.20;99.90;;;;;;6039152;23;20054;-86
2021/07/06 02:52:54;;;;;;;13.70;11.85;;;16.20;99.90;;;;;;6038542;23;20003;-86
2021/07/06 02:55:20;;;;;;;13.57;12.18;;;16.20;99.90;;;;;;6038651;23;20058;-87
2021/07/06 02:57:46;;;;;;;14.70;13.15;;;16.30;99.90;;;;;;6037881;23;20302;-86
2021/07/06 03:00:24;;;;;;;14.27;12.98;;;16.30;99.90;;;;;;6038802;23;20007;-87
2021/07/06 03:02:55;;;;;;;14.00;12.63;;;16.40;99.90;;;;;;6039193;23;20006;-87
2021/07/06 03:05:22;;;;;;;15.05;12.07;;;16.40;99.90;;;;;;6038675;23;20033;-86
2021/07/06 03:07:48;;;;;;;12.60;11.40;;;16.40;99.90;;;;;;6038151;23;20143;-87
2021/07/06 03:10:17;;;;;;;13.60;12.30;;;16.50;99.90;;;;;;6038524;23;20007;-87
2021/07/06 03:12:43;;;;;;;13.70;12.32;;;16.50;99.90;;;;;;6038536;23;20336;-87
2021/07/06 03:15:11;;;;;;;13.73;12.32;;;16.50;99.90;;;;;;6038920;23;20365;-86
2021/07/06 03:17:37;;;;;;;15.18;13.68;;;16.50;99.90;;;;;;6038678;23;19999;-87
2021/07/06 03:20:07;;;;;;;15.00;13.45;;;16.50;99.90;;;;;;6038504;23;20015;-86
2021/07/06 03:22:33;;;;;;;15.45;13.90;;;16.60;99.90;;;;;;6038400;23;20007;-87
2021/07/06 03:24:58;;;;;;;15.80;13.88;;;16.70;99.90;;;;;;6037475;23;20372;-88
2021/07/06 03:27:24;;;;;;;15.38;12.50;;;16.80;99.90;;;;;;6013299;23;20404;-88
2021/07/06 03:29:50;;;;;;;15.75;12.95;;;16.90;99.90;;;;;;6038681;23;20428;-88
2021/07/06 03:32:16;;;;;;;15.55;14.02;;;17.00;99.90;;;;;;6037998;23;20391;-87
2021/07/06 03:34:42;;;;;;;16.08;12.38;;;17.10;99.90;;;;;;6037670;23;20003;-88
2021/07/06 03:37:08;;;;;;;14.00;12.63;;;17.10;99.90;;;;;;6036824;23;20317;-86
2021/07/06 03:39:35;;;;;;;15.43;12.98;;;17.20;99.90;;;;;;6038390;23;20022;-88
2021/07/06 03:42:02;;;;;;;13.68;12.25;;;17.30;99.90;;;;;;6038120;23;20011;-86
2021/07/06 03:44:28;;;;;;;13.52;12.13;;;17.50;99.90;;;;;;6038420;23;19999;-88
2021/07/06 03:46:54;;;;;;;14.45;11.55;;;17.50;99.90;;;;;;6038165;23;20034;-87
2021/07/06 03:49:19;;;;;;;12.98;11.65;;;17.60;99.90;;;;;;6038680;23;20011;-87
2021/07/06 03:51:45;;;;;;;13.77;12.50;;;17.80;99.90;;;;;;6037757;23;20003;-87
2021/07/06 03:54:11;;;;;;;13.60;12.20;;;17.90;99.90;;;;;;6038469;23;20055;-88
2021/07/06 03:56:36;;;;;;;14.23;11.35;;;18.10;99.90;;;;;;6038302;23;20318;-87
2021/07/06 03:59:02;;;;;;;15.63;14.10;;;18.50;99.90;;;;;;6037794;23;20027;-86
2021/07/06 04:01:28;;;;;;;15.43;14.02;;;18.80;99.90;;;;;;6038376;23;20004;-87
2021/07/06 04:03:53;;;;;;;15.60;14.20;;;19.20;99.90;;;;;;6037633;23;20007;-87
2021/07/06 04:06:19;;;;;;;20.90;15.18;;;19.80;99.90;;;;;;6037780;23;19999;-87
2021/07/06 04:08:44;;;;;;;18.30;15.32;;;20.60;99.90;;;;;;6037843;23;20014;-88
2021/07/06 04:11:10;;;;;;;15.30;13.80;;;21.40;99.90;;;;;;6038126;23;20003;-88
2021/07/06 04:13:36;;;;;;;16.48;14.48;;;22.10;99.90;;;;;;6038159;23;20011;-88
2021/07/06 04:16:01;;;;;;;16.98;15.50;;;22.70;99.90;;;;;;6037773;23;19999;-88
2021/07/06 04:18:27;;;;;;;16.08;14.25;;;22.90;99.90;;;;;;6038172;23;20019;-88
2021/07/06 04:20:53;;;;;;;16.48;14.38;;;23.10;99.90;;;;;;6037533;23;20010;-88
2021/07/06 04:23:18;;;;;;;15.52;14.10;;;22.90;99.90;;;;;;6038297;23;20042;-87
2021/07/06 04:25:44;;;;;;;17.17;15.68;;;22.60;99.90;;;;;;6037733;23;20025;-88
2021/07/06 04:28:10;;;;;;;19.33;15.75;;;22.30;99.90;;;;;;6038041;23;20088;-86
2021/07/06 04:30:35;;;;;;;16.42;14.95;;;21.90;99.90;;;;;;6038254;23;20063;-87
2021/07/06 04:33:01;;;;;;;18.33;16.20;;;21.70;99.90;;;;;;6037445;23;20389;-87
2021/07/06 04:35:26;;;;;;;18.35;14.68;;;21.40;99.90;;;;;;6037152;23;20444;-88
2021/07/06 04:37:52;;;;;;;18.42;13.98;;;21.20;99.90;;;;;;6037429;23;20389;-87
2021/07/06 04:40:18;;;;;;;14.90;13.50;;;21.10;99.90;;;;;;6038203;23;20008;-88
2021/07/06 04:42:44;;;;;;;14.18;12.57;;;21.00;99.90;;;;;;6012605;23;19999;-88
2021/07/06 04:45:12;;;;;;;16.58;13.77;;;21.00;99.90;;;;;;6037559;23;20018;-88
2021/07/06 04:47:38;;;;;;;14.70;13.18;;;21.30;99.90;;;;;;6038053;23;20023;-88
2021/07/06 04:50:07;;;;;;;14.98;13.48;;;21.50;99.90;;;;;;6037064;23;20059;-88
2021/07/06 04:52:33;;;;;;;17.50;15.70;;;21.80;99.90;;;;;;6038018;23;19999;-88
2021/07/06 04:54:58;;;;;;;16.40;14.80;;;22.20;99.90;;;;;;6037421;23;20240;-87
2021/07/06 04:57:24;;;;;;;17.42;14.38;;;22.60;99.90;;;;;;6012600;23;20094;-88
2021/07/06 04:59:50;;;;;;;19.25;17.30;;;22.90;99.90;;;;;;6012511;23;20052;-88
2021/07/06 05:02:17;;;;;;;20.88;18.65;;;22.80;99.90;;;;;;6038225;23;20425;-88
2021/07/06 05:04:42;;;;;;;21.25;19.08;;;22.60;99.90;;;;;;6036570;23;20086;-87
2021/07/06 05:07:08;;;;;;;21.13;18.77;;;22.30;99.90;;;;;;6011855;23;20027;-88
2021/07/06 05:09:35;;;;;;;21.30;19.08;;;22.20;99.90;;;;;;6037732;23;20067;-87
2021/07/06 05:12:02;;;;;;;21.83;19.73;;;22.10;99.90;;;;;;6038064;23;20011;-87
2021/07/06 05:14:28;;;;;;;21.88;16.85;;;22.00;99.90;;;;;;6012665;23;20431;-87
2021/07/06 05:16:54;;;;;;;22.73;18.13;;;22.00;99.90;;;;;;6037453;23;20038;-88
2021/07/06 05:19:20;;;;;;;19.88;17.77;;;21.80;99.90;;;;;;6037074;23;20019;-87
2021/07/06 05:21:46;;;;;;;20.23;18.05;;;21.80;99.90;;;;;;6012624;23;20309;-87
2021/07/06 05:24:12;;;;;;;18.40;16.55;;;21.80;99.90;;;;;;6037855;23;20011;-87
2021/07/06 05:26:38;;;;;;;27.65;16.70;;;21.70;99.90;;;;;;6037919;23;19999;-88
2021/07/06 05:29:04;;;;;;;18.92;16.90;;;21.80;99.90;;;;;;6037570;23;20007;-87
2021/07/06 05:31:30;;;;;;;19.40;16.00;;;21.90;99.90;;;;;;6012112;23;20008;-87
2021/07/06 05:33:56;;;;;;;17.45;15.35;;;21.90;99.90;;;;;;6037270;23;20014;-88
2021/07/06 05:36:22;;;;;;;17.58;14.80;;;22.00;99.90;;;;;;6037279;23;20031;-88
2021/07/06 05:38:48;;;;;;;15.02;13.40;;;22.00;99.90;;;;;;6036999;23;20015;-88
2021/07/06 05:41:14;;;;;;;16.02;14.30;;;22.10;99.90;;;;;;6012168;23;20106;-88
2021/07/06 05:43:42;;;;;;;18.25;12.35;;;22.10;99.90;;;;;;6037762;23;20035;-90
2021/07/06 05:46:08;;;;;;;19.13;12.93;;;22.20;99.90;;;;;;6037568;23;20011;-88
2021/07/06 05:48:34;;;;;;;14.77;12.27;;;22.20;99.90;;;;;;6036959;23;20006;-87
2021/07/06 05:50:59;;;;;;;14.98;10.60;;;22.20;99.90;;;;;;6012808;23;20007;-88
2021/07/06 05:53:25;;;;;;;14.10;11.80;;;22.30;99.90;;;;;;6037649;23;20310;-88
2021/07/06 05:55:51;;;;;;;12.38;11.13;;;22.30;99.90;;;;;;6037001;23;20014;-88
2021/07/06 05:58:17;;;;;;;14.30;11.32;;;22.30;99.90;;;;;;6037360;23;20496;-87
2021/07/06 06:00:43;;;;;;;15.25;10.90;;;22.40;99.90;;;;;;6039104;23;20004;-88
2021/07/06 06:03:11;;;;;;;12.63;10.98;;;22.40;99.90;;;;;;6038879;23;20014;-87
2021/07/06 06:05:41;;;;;;;12.00;10.52;;;22.40;99.90;;;;;;6014317;23;20003;-88
2021/07/06 06:08:08;;;;;;;12.93;9.80;;;22.50;99.90;;;;;;6038718;23;20004;-87
2021/07/06 06:10:34;;;;;;;13.27;10.48;;;22.60;99.90;;;;;;6038658;23;20007;-88
2021/07/06 06:13:00;;;;;;;12.63;10.75;;;22.70;99.90;;;;;;6039441;23;20007;-87
2021/07/06 06:15:26;;;;;;;11.43;10.32;;;22.70;99.90;;;;;;6039189;23;20003;-87
2021/07/06 06:17:52;;;;;;;15.45;10.43;;;22.80;99.90;;;;;;6037287;23;20387;-87
2021/07/06 06:20:18;;;;;;;12.18;9.75;;;22.90;99.90;;;;;;6014102;23;20062;-89
2021/07/06 06:22:44;;;;;;;10.40;9.40;;;22.90;99.90;;;;;;6038645;23;20010;-87
2021/07/06 06:25:11;;;;;;;11.45;9.38;;;23.00;99.90;;;;;;6038989;23;20011;-89
2021/07/06 06:27:36;;;;;;;11.05;8.48;;;23.00;99.90;;;;;;6038789;23;20015;-86
2021/07/06 06:30:06;;;;;;;10.63;8.88;;;23.10;99.90;;;;;;6038758;23;20074;-89
2021/07/06 06:32:32;;;;;;;;;;;23.20;99.90;;;;;;6038879;23;20030;-89
2021/07/06 06:34:57;;;;;;;11.00;9.25;;;23.20;99.90;;;;;;6037877;23;19902;-88
2021/07/06 06:37:23;;;;;;;14.80;8.52;;;23.40;99.90;;;;;;6031060;23;20070;-90
2021/07/06 06:39:49;;;;;;;9.98;7.80;;;23.40;99.90;;;;;;6037334;23;20102;-89
2021/07/06 06:42:15;;;;;;;9.30;8.30;;;23.40;99.90;;;;;;6038422;23;20007;-88
2021/07/06 06:44:40;;;;;;;9.60;8.38;;;23.50;99.90;;;;;;6038142;23;20386;-89
2021/07/06 06:47:06;;;;;;;8.15;7.35;;;23.60;99.90;;;;;;6038224;23;20381;-87
2021/07/06 06:49:35;;;;;;;8.55;7.55;;;23.70;99.90;;;;;;6038327;23;20066;-89
2021/07/06 06:52:01;;;;;;;14.25;8.43;;;23.70;99.90;;;;;;6038175;23;20007;-88
2021/07/06 06:54:27;;;;;;;8.70;6.97;;;23.80;99.90;;;;;;6038014;23;20014;-89
2021/07/06 06:56:52;;;;;;;10.60;7.50;;;23.90;99.90;;;;;;6036990;23;20004;-90
2021/07/06 06:59:19;;;;;;;10.95;8.05;;;23.90;99.90;;;;;;6038362;23;20449;-90
2021/07/06 07:01:44;;;;;;;10.27;7.60;;;23.90;99.90;;;;;;6033171;23;20135;-89
2021/07/06 07:04:10;;;;;;;11.45;7.55;;;24.00;99.90;;;;;;6035669;23;20433;-87
2021/07/06 07:06:36;;;;;;;11.30;7.90;;;24.10;99.90;;;;;;6036105;23;20003;-87
2021/07/06 07:09:09;;;;;;;7.80;6.88;;;24.10;99.90;;;;;;6036752;23;20458;-88
2021/07/06 07:11:35;;;;;;;9.00;8.00;;;24.10;99.90;;;;;;6037258;23;20007;-87
2021/07/06 07:14:02;;;;;;;8.40;7.47;;;24.10;99.90;;;;;;6036377;23;20012;-88
2021/07/06 07:16:28;;;;;;;7.88;7.10;;;24.20;99.90;;;;;;6036137;23;20007;-88
2021/07/06 07:18:54;;;;;;;11.50;6.85;;;24.20;99.90;;;;;;6036614;23;20047;-89
2021/07/06 07:21:20;;;;;;;7.25;6.40;;;24.30;99.90;;;;;;6037017;23;20011;-89
2021/07/06 07:23:45;;;;;;;9.13;7.45;;;24.30;99.90;;;;;;6035843;23;20340;-88
2021/07/06 07:26:11;;;;;;;11.05;7.32;;;24.40;99.90;;;;;;6036781;23;20010;-88
2021/07/06 07:28:37;;;;;;;8.57;6.72;;;24.50;99.90;;;;;;6036665;23;20000;-89
2021/07/06 07:31:02;;;;;;;8.93;6.80;;;24.50;99.90;;;;;;6035784;23;20078;-88
2021/07/06 07:33:28;;;;;;;8.15;6.38;;;24.50;99.90;;;;;;6036608;23;20026;-86
2021/07/06 07:35:54;;;;;;;8.63;6.60;;;24.50;99.90;;;;;;6034813;23;20011;-88
2021/07/06 07:38:19;;;;;;;8.32;7.07;;;24.60;99.90;;;;;;6036090;23;20023;-89
2021/07/06 07:40:45;;;;;;;8.23;6.85;;;24.60;99.90;;;;;;6034857;23;20313;-88
2021/07/06 07:43:11;;;;;;;7.65;6.32;;;24.70;99.90;;;;;;6035527;23;20079;-89
2021/07/06 07:45:37;;;;;;;8.45;6.63;;;24.70;99.90;;;;;;6035534;23;20000;-89
2021/07/06 07:48:05;;;;;;;7.72;6.60;;;24.80;99.90;;;;;;6011580;23;20022;-89
2021/07/06 07:50:31;;;;;;;7.70;6.55;;;24.90;99.90;;;;;;6036009;23;20004;-88
2021/07/06 07:52:57;;;;;;;8.82;6.60;;;25.10;99.90;;;;;;6035551;23;20015;-89
2021/07/06 07:55:23;;;;;;;9.43;7.10;;;25.20;99.90;;;;;;6036098;23;20518;-88
2021/07/06 07:57:48;;;;;;;8.80;7.60;;;25.30;99.90;;;;;;6035778;23;20015;-89
2021/07/06 08:00:15;;;;;;;10.05;6.70;;;25.30;99.90;;;;;;6035730;23;20019;-88
2021/07/06 08:02:42;;;;;;;8.98;6.30;;;25.30;99.90;;;;;;6035214;23;20004;-90
2021/07/06 08:05:08;;;;;;;7.82;7.03;;;25.40;99.90;;;;;;6036130;23;20034;-89
2021/07/06 08:07:34;;;;;;;8.48;6.60;;;25.50;99.90;;;;;;6034535;23;20023;-87
2021/07/06 08:09:59;;;;;;;9.13;6.30;;;25.50;99.90;;;;;;6032246;23;20027;-89
2021/07/06 08:12:25;;;;;;;9.88;7.00;;;25.70;99.90;;;;;;6034876;23;20003;-90
2021/07/06 08:14:51;;;;;;;10.25;6.53;;;25.70;99.90;;;;;;6035193;23;20011;-89
2021/07/06 08:17:18;;;;;;;6.65;5.93;;;25.70;99.90;;;;;;6035039;23;20007;-88
2021/07/06 08:19:44;;;;;;;6.68;5.55;;;25.90;99.90;;;;;;6035185;23;20018;-88
2021/07/06 08:22:09;;;;;;;7.68;6.47;;;25.80;99.90;;;;;;6033961;23;20030;-88
2021/07/06 08:24:35;;;;;;;6.75;6.05;;;25.90;99.90;;;;;;6035227;23;20011;-89
2021/07/06 08:27:01;;;;;;;7.72;5.82;;;25.90;99.90;;;;;;6033902;23;20003;-88
2021/07/06 08:29:27;;;;;;;8.63;6.53;;;25.90;99.90;;;;;;6035041;23;20007;-88
2021/07/06 08:31:53;;;;;;;11.38;6.70;;;25.80;99.90;;;;;;6035591;23;20003;-88
2021/07/06 08:34:19;;;;;;;7.85;7.05;;;25.80;99.90;;;;;;6010148;23;20007;-89
2021/07/06 08:36:45;;;;;;;7.55;6.45;;;25.70;99.90;;;;;;6035091;23;20123;-89
2021/07/06 08:39:10;;;;;;;8.85;6.88;;;25.80;99.90;;;;;;6035601;23;20023;-88
2021/07/06 08:41:36;;;;;;;7.93;7.13;;;25.90;99.90;;;;;;6034962;23;20025;-88
2021/07/06 08:44:04;;;;;;;14.65;7.68;;;25.90;99.90;;;;;;6035337;23;20007;-89
2021/07/06 08:46:31;;;;;;;11.38;7.32;;;26.10;99.90;;;;;;6035747;23;20055;-88
2021/07/06 08:48:58;;;;;;;7.55;6.82;;;26.00;99.90;;;;;;6035505;23;20003;-89
2021/07/06 08:51:24;;;;;;;13.60;7.40;;;26.10;99.90;;;;;;6010581;23;20007;-87
2021/07/06 08:53:50;;;;;;;12.75;6.88;;;26.20;99.90;;;;;;6035250;23;20550;-88
2021/07/06 08:56:16;;;;;;;7.95;5.95;;;26.30;99.90;;;;;;6034732;23;20003;-90
2021/07/06 08:58:42;;;;;;;9.20;6.13;;;26.30;99.90;;;;;;6035690;23;20039;-89
2021/07/06 09:01:08;;;;;;;11.15;6.63;;;26.40;99.90;;;;;;6035814;23;20010;-88
2021/07/06 09:04:11;;;;;;;7.07;6.35;;;26.50;99.90;;;;;;6035670;23;20598;-89
2021/07/06 09:06:57;;;;;;;8.75;5.50;;;26.50;99.90;;;;;;5898253;24;20013;-88
2021/07/06 09:09:28;;;;;;;7.97;6.22;;;26.60;99.90;;;;;;5920306;24;20037;-90
2021/07/06 09:11:56;;;;;;;7.88;5.90;;;26.40;99.40;;;;;;5920873;24;20010;-88
2021/07/06 09:14:27;;;;;;;10.07;6.38;;;26.50;99.90;;;;;;5898168;24;20333;-88
2021/07/06 09:17:13;;;;;;;6.88;6.20;;;26.60;99.90;;;;;;5920953;24;20017;-88
2021/07/06 09:19:46;;;;;;;7.20;6.50;;;26.60;97.90;;;;;;5906746;24;20040;-90
2021/07/06 09:22:15;;;;;;;6.18;5.55;;;26.70;99.50;;;;;;5920245;24;20462;-89
2021/07/06 09:24:44;;;;;;;8.17;6.17;;;26.60;99.50;;;;;;5915956;24;20084;-87
2021/07/06 09:27:24;;;;;;;7.90;6.40;;;26.70;98.20;;;;;;5920777;24;20009;-89
2021/07/06 09:30:16;;;;;;;6.75;6.05;;;26.80;97.40;;;;;;5897083;24;20484;-88
2021/07/06 09:32:47;;;;;;;7.97;5.90;;;26.80;98.10;;;;;;5920591;24;20020;-89
2021/07/06 09:35:15;;;;;;;6.07;5.45;;;26.70;99.40;;;;;;5914232;24;20020;-87
2021/07/06 09:37:45;;;;;;;6.20;5.70;;;26.80;98.90;;;;;;5898633;24;20046;-88
2021/07/06 09:40:32;;;;;;;8.80;6.13;;;26.80;98.30;;;;;;5937210;23;20023;-88
2021/07/06 09:43:26;;;;;;;7.57;6.20;;;26.90;99.10;;;;;;6036837;23;20003;-89
2021/07/06 09:46:04;;;;;;;8.13;5.70;;;26.90;98.60;;;;;;6010221;23;21198;-89
2021/07/06 09:48:31;;;;;;;8.05;5.75;;;27.00;97.60;;;;;;6037574;23;20011;-88
2021/07/06 09:51:18;;;;;;;8.07;6.28;;;27.00;97.90;;;;;;6037080;23;20000;-89
2021/07/06 09:53:51;;;;;;;6.22;5.57;;;27.10;98.00;;;;;;6037224;23;20003;-90
2021/07/06 09:56:19;;;;;;;6.07;5.40;;;27.30;98.80;;;;;;6035814;23;20019;-89
2021/07/06 09:59:13;;;;;;;6.00;5.50;;;27.20;98.90;;;;;;6036882;23;20063;-89
2021/07/06 10:01:52;;;;;;;13.43;6.25;;;27.30;95.90;;;;;;6034048;23;20337;-87
2021/07/06 10:04:19;;;;;;;7.60;5.65;;;27.30;96.60;;;;;;6010450;23;20415;-88
2021/07/06 10:06:45;;;;;;;8.30;5.80;;;27.50;97.40;;;;;;6037382;23;20007;-89
2021/07/06 10:09:12;;;;;;;6.43;5.82;;;27.70;98.00;;;;;;6036911;23;20801;-89
2021/07/06 10:11:38;;;;;;;7.10;6.40;;;27.90;96.80;;;;;;6012612;23;20031;-89
2021/07/06 10:14:05;;;;;;;13.30;6.05;;;28.00;95.30;;;;;;6037234;23;20004;-89
2021/07/06 10:16:31;;;;;;;6.35;5.47;;;28.00;95.80;;;;;;6036534;23;20015;-89
2021/07/06 10:18:57;;;;;;;6.63;5.93;;;28.00;94.80;;;;;;6036910;23;20011;-90
2021/07/06 10:21:23;;;;;;;6.25;5.60;;;28.00;96.40;;;;;;6011711;23;20007;-89
2021/07/06 10:23:50;;;;;;;7.05;5.85;;;28.10;94.60;;;;;;6036348;23;20019;-90
2021/07/06 10:26:23;;;;;;;5.75;5.25;;;28.10;95.20;;;;;;6036386;23;19999;-92
2021/07/06 10:28:52;;;;;;;7.53;6.07;;;28.20;95.10;;;;;;6010188;23;20030;-89
2021/07/06 10:31:19;;;;;;;6.57;5.75;;;28.20;96.30;;;;;;6035729;23;20007;-90
2021/07/06 10:33:47;;;;;;;6.18;5.57;;;28.00;96.10;;;;;;6035586;23;20489;-89
2021/07/06 10:36:14;;;;;;;6.65;5.90;;;28.10;94.20;;;;;;6010671;23;20440;-90
2021/07/06 10:38:42;;;;;;;7.05;5.85;;;28.10;93.50;;;;;;6035468;23;20015;-90
2021/07/06 10:41:14;;;;;;;14.27;6.03;;;28.30;92.60;;;;;;6035852;23;20034;-91
2021/07/06 10:43:42;;;;;;;6.00;5.43;;;28.30;93.70;;;;;;6036591;23;20799;-91
2021/07/06 10:46:25;;;;;;;6.57;5.78;;;28.30;93.60;;;;;;6009719;23;20015;-91
2021/07/06 10:49:26;;;;;;;7.65;5.75;;;28.20;93.60;;;;;;6036198;23;20003;-90
2021/07/06 10:51:53;;;;;;;6.90;5.70;;;28.20;94.00;;;;;;6035341;23;20396;-89
2021/07/06 10:54:30;;;;;;;6.95;5.45;;;28.20;94.00;;;;;;6036036;23;20034;-89
2021/07/06 10:56:59;;;;;;;8.40;6.00;;;28.40;92.90;;;;;;6036717;23;20010;-90
2021/07/06 10:59:35;;;;;;;9.50;6.07;;;28.50;92.70;;;;;;6036265;23;20019;-88
2021/07/06 11:02:08;;;;;;;5.78;5.28;;;28.60;93.90;;;;;;6010604;23;20003;-89
2021/07/06 11:07:12;;;;;;;6.13;5.53;;;28.80;91.70;;;;;;6034875;23;20753;-90
2021/07/06 11:09:37;;;;;;;6.18;5.55;;;28.70;91.80;;;;;;6035884;23;20014;-89
2021/07/06 11:12:19;;;;;;;5.88;5.22;;;28.60;91.80;;;;;;6011308;23;20011;-90
2021/07/06 11:15:05;;;;;;;5.85;5.28;;;28.50;91.50;;;;;;6010255;23;20102;-89
2021/07/06 11:17:48;;;;;;;5.75;4.88;;;28.50;93.20;;;;;;6036632;23;20385;-90
2021/07/06 11:20:35;;;;;;;5.95;5.35;;;28.50;90.50;;;;;;6034979;23;20022;-89
2021/07/06 11:23:02;;;;;;;5.53;4.82;;;28.40;92.60;;;;;;6011009;23;20609;-91
2021/07/06 11:25:31;;;;;;;5.93;5.03;;;28.40;93.10;;;;;;6010702;23;20468;-88
2021/07/06 11:28:13;;;;;;;6.68;5.40;;;28.40;90.80;;;;;;6010202;23;20036;-89
2021/07/06 11:30:49;;;;;;;5.78;5.13;;;28.40;90.70;;;;;;6035163;23;20035;-90
2021/07/06 11:33:17;;;;;;;5.68;5.07;;;28.30;91.30;;;;;;6009467;23;20015;-91
2021/07/06 11:36:06;;;;;;;5.47;4.90;;;28.30;91.60;;;;;;6034841;23;20003;-90
2021/07/06 11:38:44;;;;;;;5.72;5.18;;;28.30;91.70;;;;;;6036485;23;20067;-89
2021/07/06 11:41:12;;;;;;;6.65;5.15;;;28.30;91.80;;;;;;6034966;23;20439;-89
2021/07/06 11:43:39;;;;;;;4.75;4.22;;;28.40;91.90;;;;;;6035559;23;20038;-90
2021/07/06 11:46:06;;;;;;;5.53;5.00;;;28.40;91.50;;;;;;6035869;23;20347;-89
2021/07/06 11:48:35;;;;;;;5.53;4.03;;;28.40;91.30;;;;;;6035504;23;20030;-90
2021/07/06 11:51:03;;;;;;;4.63;4.22;;;28.60;90.60;;;;;;6034702;23;20094;-90
2021/07/06 11:53:34;;;;;;;6.55;4.20;;;28.70;90.20;;;;;;6011009;23;20011;-89
2021/07/06 11:56:03;;;;;;;5.07;4.57;;;28.80;90.60;;;;;;6035525;23;20039;-91
2021/07/06 11:58:31;;;;;;;5.53;4.28;;;28.70;90.10;;;;;;6008669;23;20018;-91
2021/07/06 12:01:01;;;;;;;5.00;4.60;;;28.70;90.50;;;;;;6035092;23;20003;-90
2021/07/06 12:03:31;;;;;;;5.80;4.15;;;28.80;89.70;;;;;;6035918;23;20003;-91
2021/07/06 12:06:03;;;;;;;4.38;4.00;;;28.80;89.40;;;;;;6034576;23;20031;-90
2021/07/06 12:08:41;;;;;;;4.57;4.13;;;28.90;90.40;;;;;;6010275;23;20015;-90
2021/07/06 12:11:07;;;;;;;5.28;3.75;;;28.80;86.60;;;;;;6034715;23;20010;-89
2021/07/06 12:13:53;;;;;;;4.38;3.97;;;28.70;86.20;;;;;;6035850;23;20010;-90
2021/07/06 12:16:23;;;;;;;4.13;3.72;;;28.70;86.50;;;;;;6035094;23;20004;-89
2021/07/06 12:18:49;;;;;;;5.43;3.88;;;28.90;86.50;;;;;;6034728;23;20042;-89
2021/07/06 12:21:31;;;;;;;4.50;3.10;;;29.00;86.80;;;;;;6009098;23;20038;-89
2021/07/06 12:23:59;;;;;;;4.30;3.90;;;29.20;87.20;;;;;;6036060;23;20003;-90
2021/07/06 12:26:26;;;;;;;3.78;3.47;;;29.10;86.80;;;;;;6034924;23;20014;-91
2021/07/06 12:28:52;;;;;;;4.28;3.50;;;29.10;84.10;;;;;;6034427;23;20006;-89
2021/07/06 12:31:22;;;;;;;3.75;3.45;;;29.00;84.90;;;;;;6035209;23;20004;-91
2021/07/06 12:34:08;;;;;;;5.43;3.50;;;29.00;83.90;;;;;;6035678;23;20067;-91
2021/07/06 12:36:47;;;;;;;4.32;3.92;;;29.00;83.60;;;;;;6034811;23;20063;-90
2021/07/06 12:39:36;;;;;;;4.28;3.88;;;28.80;83.90;;;;;;6033672;23;20026;-90
2021/07/06 12:42:04;;;;;;;3.90;3.20;;;28.80;82.60;;;;;;6035856;23;20424;-90
2021/07/06 12:44:36;;;;;;;5.25;3.60;;;28.80;86.20;;;;;;6034599;23;20379;-90